createdAt,value
2017-07-20T00:00:24.515Z,7.93
2017-07-20T00:02:51.122Z,7.70
2017-07-20T00:05:17.728Z,8.17
2017-07-20T00:07:44.347Z,8.20
2017-07-20T00:10:10.998Z,8.70
2017-07-20T00:12:38.247Z,8.10
2017-07-20T00:15:04.901Z,8.60
2017-07-20T00:17:31.539Z,8.53
2017-07-20T00:19:58.146Z,8.30
2017-07-20T00:22:24.750Z,9.20
2017-07-20T00:24:51.404Z,8.70
2017-07-20T00:27:18.006Z,9.30
2017-07-20T00:29:44.613Z,9.33
2017-07-20T00:32:11.266Z,8.50
2017-07-20T00:34:37.963Z,8.43
2017-07-20T00:37:04.945Z,8.63
2017-07-20T00:39:31.613Z,9.03
2017-07-20T00:41:58.272Z,8.67
2017-07-20T00:44:24.923Z,9.40
2017-07-20T00:46:51.525Z,8.40
2017-07-20T00:49:18.298Z,8.33
2017-07-20T00:51:44.910Z,9.00
2017-07-20T00:54:11.592Z,8.70
2017-07-20T00:56:38.221Z,9.10
2017-07-20T00:59:05.015Z,8.10
2017-07-20T01:01:31.763Z,8.47
2017-07-20T01:03:58.493Z,8.73
2017-07-20T01:06:25.129Z,9.27
2017-07-20T01:08:51.734Z,8.07
2017-07-20T01:11:18.359Z,8.10
2017-07-20T01:19:18.177Z,8.77
2017-07-20T01:21:44.782Z,8.83
2017-07-20T01:24:11.444Z,7.90
2017-07-20T01:26:38.270Z,9.10
2017-07-20T01:29:04.957Z,9.80
2017-07-20T01:31:31.530Z,9.37
2017-07-20T01:33:58.119Z,9.03
2017-07-20T01:36:24.738Z,9.93
2017-07-20T01:38:51.317Z,9.60
2017-07-20T01:41:17.910Z,8.70
2017-07-20T01:43:44.505Z,9.37
2017-07-20T01:46:11.104Z,9.47
2017-07-20T01:48:37.781Z,8.90
2017-07-20T01:51:04.484Z,9.17
2017-07-20T01:53:31.106Z,9.40
2017-07-20T01:55:57.859Z,9.10
2017-07-20T01:58:30.060Z,9.67
2017-07-20T02:01:01.455Z,9.77
2017-07-20T02:03:28.086Z,9.40
2017-07-20T02:05:54.685Z,9.93
2017-07-20T02:08:21.795Z,8.80
2017-07-20T02:10:48.396Z,9.67
2017-07-20T02:13:14.982Z,9.17
2017-07-20T02:15:41.579Z,9.23
2017-07-20T02:18:08.396Z,10.00
2017-07-20T02:20:35.187Z,9.20
2017-07-20T02:23:01.778Z,9.63
2017-07-20T02:25:28.410Z,9.50
2017-07-20T02:27:55.164Z,9.17
2017-07-20T02:30:21.768Z,9.70
2017-07-20T02:32:48.349Z,9.90
2017-07-20T02:35:14.966Z,10.10
2017-07-20T02:37:41.627Z,9.60
2017-07-20T02:40:08.291Z,10.77
2017-07-20T02:42:34.935Z,10.67
2017-07-20T02:45:02.455Z,9.80
2017-07-20T02:47:29.084Z,10.13
2017-07-20T02:49:55.694Z,10.10
2017-07-20T02:52:22.298Z,9.90
2017-07-20T02:54:48.903Z,9.87
2017-07-20T02:57:15.497Z,10.20
2017-07-20T02:59:42.089Z,10.70
2017-07-20T03:02:08.761Z,10.77
2017-07-20T03:04:35.490Z,9.70
2017-07-20T03:07:02.098Z,10.30
2017-07-20T03:09:28.748Z,9.90
2017-07-20T03:11:55.362Z,10.60
2017-07-20T03:14:21.953Z,11.30
2017-07-20T03:16:48.537Z,11.13
2017-07-20T03:19:15.151Z,11.60
2017-07-20T03:21:41.806Z,11.33
2017-07-20T03:24:08.600Z,10.50
2017-07-20T03:26:35.311Z,10.67
2017-07-20T03:29:01.921Z,11.50
2017-07-20T03:31:28.585Z,11.27
2017-07-20T03:33:55.189Z,11.37
2017-07-20T03:36:21.785Z,11.17
2017-07-20T03:38:48.394Z,12.40
2017-07-20T03:41:14.998Z,11.20
2017-07-20T03:43:41.691Z,12.27
2017-07-20T03:46:08.326Z,13.00
2017-07-20T03:48:34.945Z,12.00
2017-07-20T03:51:01.582Z,12.40
2017-07-20T03:53:28.276Z,14.00
2017-07-20T03:55:54.877Z,11.50
2017-07-20T03:58:21.466Z,14.13
2017-07-20T04:00:48.098Z,10.53
2017-07-20T04:03:14.728Z,9.43
2017-07-20T04:05:41.304Z,10.17
2017-07-20T04:08:07.948Z,11.60
2017-07-20T04:10:34.594Z,10.37
2017-07-20T04:13:01.186Z,12.27
2017-07-20T04:15:27.778Z,12.50
2017-07-20T04:17:54.373Z,13.43
2017-07-20T04:20:20.978Z,12.53
2017-07-20T04:22:47.563Z,14.10
2017-07-20T04:25:14.151Z,13.93
2017-07-20T04:27:41.162Z,15.07
2017-07-20T04:30:08.482Z,13.43
2017-07-20T04:32:35.204Z,14.70
2017-07-20T04:35:01.798Z,14.30
2017-07-20T04:37:28.389Z,13.10
2017-07-20T04:39:54.978Z,12.70
2017-07-20T04:42:21.581Z,11.60
2017-07-20T04:44:48.176Z,11.97
2017-07-20T04:47:14.759Z,10.33
2017-07-20T04:49:41.365Z,10.33
2017-07-20T04:52:08.091Z,10.60
2017-07-20T04:54:34.702Z,9.90
2017-07-20T04:57:01.290Z,8.87
2017-07-20T04:59:27.883Z,9.70
2017-07-20T05:01:54.493Z,9.30
2017-07-20T05:04:21.077Z,9.90
2017-07-20T05:06:47.674Z,9.40
2017-07-20T05:09:14.254Z,9.93
2017-07-20T05:11:40.838Z,10.10
2017-07-20T05:14:07.462Z,8.83
2017-07-20T05:16:34.108Z,9.33
2017-07-20T05:19:00.782Z,9.70
2017-07-20T05:21:27.390Z,9.33
2017-07-20T05:23:53.990Z,9.30
2017-07-20T05:26:20.586Z,10.43
2017-07-20T05:28:47.161Z,9.40
2017-07-20T05:31:13.767Z,9.07
2017-07-20T05:33:40.363Z,9.80
2017-07-20T05:36:07.146Z,10.10
2017-07-20T05:38:33.812Z,9.60
2017-07-20T05:41:00.388Z,10.40
2017-07-20T05:43:27.052Z,9.20
2017-07-20T05:45:53.613Z,9.60
2017-07-20T05:48:20.194Z,9.00
2017-07-20T05:50:46.798Z,11.30
2017-07-20T05:53:13.958Z,10.60
2017-07-20T05:55:40.563Z,9.57
2017-07-20T05:58:07.185Z,9.53
2017-07-20T06:00:33.759Z,9.50
2017-07-20T06:03:00.355Z,8.60
2017-07-20T06:05:26.933Z,9.20
2017-07-20T06:07:53.538Z,8.87
2017-07-20T06:10:20.131Z,7.60
2017-07-20T06:12:46.715Z,8.10
2017-07-20T06:15:13.318Z,9.00
2017-07-20T06:17:39.939Z,8.20
2017-07-20T06:20:06.676Z,7.70
2017-07-20T06:22:33.319Z,9.60
2017-07-20T06:24:59.953Z,9.57
2017-07-20T06:27:26.545Z,8.03
2017-07-20T06:29:53.183Z,8.20
2017-07-20T06:32:19.880Z,8.43
2017-07-20T06:34:46.502Z,7.60
2017-07-20T06:37:13.110Z,8.40
2017-07-20T06:39:45.846Z,8.00
2017-07-20T06:42:17.282Z,8.10
2017-07-20T06:44:46.904Z,8.10
2017-07-20T06:47:13.515Z,7.63
2017-07-20T06:49:40.162Z,7.97
2017-07-20T06:52:07.222Z,9.30
2017-07-20T06:54:33.824Z,9.60
2017-07-20T06:57:00.412Z,8.07
2017-07-20T06:59:27.096Z,8.57
2017-07-20T07:01:53.712Z,9.10
2017-07-20T07:04:20.341Z,8.53
2017-07-20T07:06:46.897Z,9.00
2017-07-20T07:09:13.530Z,7.93
2017-07-20T07:11:40.168Z,8.40
2017-07-20T07:14:07.692Z,8.30
2017-07-20T07:16:34.385Z,7.93
2017-07-20T07:19:00.979Z,9.27
2017-07-20T07:21:27.606Z,7.43
2017-07-20T07:23:54.189Z,8.20
2017-07-20T07:26:20.769Z,7.67
2017-07-20T07:28:47.410Z,7.73
2017-07-20T07:31:13.993Z,7.73
2017-07-20T07:33:40.666Z,7.43
2017-07-20T07:36:07.267Z,7.97
2017-07-20T07:38:34.171Z,8.47
2017-07-20T07:41:00.776Z,7.30
2017-07-20T07:43:27.382Z,7.97
2017-07-20T07:45:53.992Z,7.73
2017-07-20T07:48:20.608Z,8.50
2017-07-20T07:50:47.258Z,8.20
2017-07-20T07:53:13.897Z,7.57
2017-07-20T07:55:40.477Z,8.73
2017-07-20T07:58:16.826Z,8.50
2017-07-20T08:00:43.474Z,9.30
2017-07-20T08:03:10.042Z,8.70
2017-07-20T08:05:36.698Z,8.17
2017-07-20T08:08:03.967Z,8.87
2017-07-20T08:10:30.579Z,8.77
2017-07-20T08:12:57.158Z,8.30
2017-07-20T08:15:23.766Z,8.07
2017-07-20T08:17:57.010Z,9.03
2017-07-20T08:20:23.604Z,9.77
2017-07-20T08:22:50.203Z,10.43
2017-07-20T08:25:25.376Z,10.13
2017-07-20T08:27:51.969Z,10.50
2017-07-20T08:30:25.349Z,9.20
2017-07-20T08:32:51.950Z,10.60
2017-07-20T08:35:18.531Z,9.87
2017-07-20T08:37:45.147Z,11.17
2017-07-20T08:40:11.834Z,11.57
2017-07-20T08:42:38.602Z,9.83
2017-07-20T08:45:05.228Z,10.23
2017-07-20T08:47:31.876Z,9.83
2017-07-20T08:49:58.467Z,10.13
2017-07-20T08:52:25.053Z,10.77
2017-07-20T08:54:58.110Z,10.27
2017-07-20T08:57:27.929Z,11.00
2017-07-20T08:59:54.524Z,11.40
2017-07-20T09:02:21.130Z,11.30
2017-07-20T09:04:47.718Z,9.73
2017-07-20T09:07:14.307Z,10.90
2017-07-20T09:09:40.917Z,12.00
2017-07-20T09:12:07.633Z,10.50
2017-07-20T09:14:34.238Z,10.20
2017-07-20T09:17:00.838Z,10.90
2017-07-20T09:19:33.775Z,11.20
2017-07-20T09:22:03.586Z,11.20
2017-07-20T09:24:30.174Z,10.13
2017-07-20T09:26:56.758Z,11.00
2017-07-20T09:29:23.366Z,10.70
2017-07-20T09:31:58.198Z,11.97
2017-07-20T09:34:24.805Z,10.50
2017-07-20T09:36:51.403Z,12.00
2017-07-20T09:39:17.977Z,10.57
2017-07-20T09:41:52.141Z,10.00
2017-07-20T09:44:18.715Z,8.50
2017-07-20T09:46:45.429Z,7.50
2017-07-20T09:49:19.498Z,7.50
2017-07-20T09:51:46.103Z,8.50
2017-07-20T09:54:12.761Z,7.73
2017-07-20T09:56:39.421Z,7.37
2017-07-20T09:59:06.222Z,7.60
2017-07-20T10:01:38.690Z,7.60
2017-07-20T10:04:05.297Z,7.57
2017-07-20T10:06:31.886Z,7.70
2017-07-20T10:08:58.461Z,6.90
2017-07-20T10:11:33.405Z,7.30
2017-07-20T10:13:59.988Z,6.57
2017-07-20T10:16:26.605Z,6.80
2017-07-20T10:18:53.234Z,6.40
2017-07-20T10:21:19.814Z,6.53
2017-07-20T10:23:46.397Z,5.87
2017-07-20T10:26:12.973Z,5.97
2017-07-20T10:28:39.566Z,6.03
2017-07-20T10:31:06.192Z,5.83
2017-07-20T10:33:32.766Z,7.07
2017-07-20T10:35:59.425Z,6.10
2017-07-20T10:38:26.010Z,6.20
2017-07-20T10:40:52.598Z,6.63
2017-07-20T10:43:19.181Z,5.20
2017-07-20T10:45:45.763Z,4.97
2017-07-20T10:48:12.412Z,4.73
2017-07-20T10:50:39.240Z,4.67
2017-07-20T10:53:05.859Z,4.67
2017-07-20T10:55:32.437Z,4.50
2017-07-20T10:57:59.059Z,4.93
2017-07-20T11:00:25.643Z,4.83
2017-07-20T11:02:52.222Z,4.93
2017-07-20T11:05:18.825Z,4.60
2017-07-20T11:07:45.410Z,5.10
2017-07-20T11:10:11.977Z,4.50
2017-07-20T11:12:38.674Z,4.50
2017-07-20T11:15:05.512Z,4.03
2017-07-20T11:17:32.299Z,3.67
2017-07-20T11:19:58.873Z,4.10
2017-07-20T11:22:25.458Z,3.50
2017-07-20T11:24:52.060Z,3.17
2017-07-20T11:27:18.637Z,3.20
2017-07-20T11:29:46.160Z,3.03
2017-07-20T11:32:12.854Z,3.70
2017-07-20T11:34:39.656Z,3.20
2017-07-20T11:37:06.360Z,3.20
2017-07-20T11:39:33.005Z,2.70
2017-07-20T11:41:59.951Z,2.70
2017-07-20T11:44:27.344Z,2.70
2017-07-20T11:46:53.897Z,2.77
2017-07-20T11:49:20.491Z,2.80
2017-07-20T11:51:47.080Z,2.63
2017-07-20T11:54:13.718Z,2.37
2017-07-20T11:56:40.529Z,2.70
2017-07-20T11:59:07.194Z,2.43
2017-07-20T12:01:33.783Z,2.30
2017-07-20T12:04:00.349Z,3.00
2017-07-20T12:06:26.950Z,2.40
2017-07-20T12:08:53.597Z,2.30
2017-07-20T12:11:20.181Z,2.60
2017-07-20T12:13:46.762Z,2.13
2017-07-20T12:16:13.373Z,2.57
2017-07-20T12:18:40.122Z,2.00
2017-07-20T12:21:06.791Z,2.50
2017-07-20T12:23:33.374Z,2.00
2017-07-20T12:25:59.958Z,2.17
2017-07-20T12:28:26.540Z,2.07
2017-07-20T12:30:53.202Z,2.60
2017-07-20T12:33:19.810Z,2.70
2017-07-20T12:35:46.382Z,2.67
2017-07-20T12:38:12.965Z,2.73
2017-07-20T12:40:39.653Z,2.50
2017-07-20T12:43:06.260Z,2.53
2017-07-20T12:45:32.952Z,2.63
2017-07-20T12:47:59.577Z,3.20
2017-07-20T12:50:26.161Z,3.30
2017-07-20T12:52:52.741Z,2.83
2017-07-20T12:55:19.342Z,2.47
2017-07-20T12:57:45.925Z,2.30
2017-07-20T13:00:12.518Z,2.00
2017-07-20T13:02:39.478Z,1.90
2017-07-20T13:05:06.259Z,2.20
2017-07-20T13:07:32.899Z,1.90
2017-07-20T13:10:00.977Z,1.97
2017-07-20T13:12:27.700Z,1.80
2017-07-20T13:14:54.306Z,1.93
2017-07-20T13:17:20.885Z,2.50
2017-07-20T13:19:47.478Z,2.40
2017-07-20T13:22:14.058Z,2.07
2017-07-20T13:24:40.642Z,2.00
2017-07-20T13:27:07.245Z,2.00
2017-07-20T13:29:33.958Z,2.20
2017-07-20T13:32:00.557Z,1.90
2017-07-20T13:34:27.153Z,2.00
2017-07-20T13:36:53.736Z,1.97
2017-07-20T13:39:20.310Z,1.90
2017-07-20T13:41:46.928Z,1.70
2017-07-20T13:44:13.525Z,1.80
2017-07-20T13:46:40.192Z,1.80
2017-07-20T13:49:07.365Z,2.20
2017-07-20T13:51:40.294Z,2.20
2017-07-20T13:54:16.796Z,2.00
2017-07-20T13:56:43.388Z,2.03
2017-07-20T13:59:10.015Z,2.00
2017-07-20T14:01:36.638Z,1.90
2017-07-20T14:04:03.221Z,2.00
2017-07-20T14:06:29.805Z,1.97
2017-07-20T14:08:56.381Z,1.80
2017-07-20T14:11:22.958Z,2.30
2017-07-20T14:13:49.616Z,1.87
2017-07-20T14:16:16.201Z,2.20
2017-07-20T14:18:42.782Z,2.07
2017-07-20T14:21:09.394Z,1.97
2017-07-20T14:23:35.993Z,2.23
2017-07-20T14:26:12.907Z,2.23
2017-07-20T14:28:39.486Z,2.20
2017-07-20T14:31:08.744Z,2.00
2017-07-20T14:33:41.525Z,2.07
2017-07-20T14:36:08.195Z,2.00
2017-07-20T14:38:34.814Z,2.03
2017-07-20T14:41:01.398Z,1.90
2017-07-20T14:43:27.997Z,2.30
2017-07-20T14:45:54.574Z,2.10
2017-07-20T14:48:21.150Z,2.17
2017-07-20T14:50:47.745Z,2.07
2017-07-20T14:53:14.350Z,1.97
2017-07-20T14:55:40.945Z,2.00
2017-07-20T14:58:09.208Z,2.20
2017-07-20T15:00:35.826Z,1.90
2017-07-20T15:03:02.455Z,2.20
2017-07-20T15:05:29.621Z,2.10
2017-07-20T15:07:56.992Z,1.97
2017-07-20T15:10:30.305Z,1.90
2017-07-20T15:12:58.014Z,1.70
2017-07-20T15:15:24.650Z,1.97
2017-07-20T15:17:51.234Z,2.00
2017-07-20T15:20:17.816Z,2.40
2017-07-20T15:22:44.430Z,1.90
2017-07-20T15:25:11.074Z,2.07
2017-07-20T15:27:38.086Z,1.90
2017-07-20T15:30:04.937Z,2.00
2017-07-20T15:32:31.558Z,2.30
2017-07-20T15:34:58.134Z,2.00
2017-07-20T15:37:24.724Z,2.23
2017-07-20T15:39:51.365Z,2.10
2017-07-20T15:42:17.964Z,2.00
2017-07-20T15:44:45.378Z,2.00
2017-07-20T15:47:15.889Z,2.40
2017-07-20T15:49:42.537Z,2.07
2017-07-20T15:52:09.108Z,2.30
2017-07-20T15:54:46.074Z,1.90
2017-07-20T15:57:12.665Z,2.20
2017-07-20T15:59:39.273Z,2.10
2017-07-20T16:02:16.253Z,2.10
2017-07-20T16:04:42.877Z,2.07
2017-07-20T16:07:16.059Z,2.17
2017-07-20T16:09:42.663Z,2.20
2017-07-20T16:12:09.567Z,2.00
2017-07-20T16:14:50.941Z,2.10
2017-07-20T16:17:17.544Z,2.20
2017-07-20T16:19:44.172Z,2.10
2017-07-20T16:22:16.690Z,1.90
2017-07-20T16:24:46.483Z,2.20
2017-07-20T16:27:13.113Z,2.17
2017-07-20T16:29:39.790Z,2.00
2017-07-20T16:32:06.441Z,2.17
2017-07-20T16:34:33.021Z,2.27
2017-07-20T16:36:59.614Z,1.87
2017-07-20T16:39:26.218Z,2.00
2017-07-20T16:41:52.802Z,1.93
2017-07-20T16:44:19.376Z,2.50
2017-07-20T16:46:55.732Z,2.53
2017-07-20T16:49:22.330Z,2.57
2017-07-20T16:51:48.920Z,2.10
2017-07-20T16:54:15.494Z,2.10
2017-07-20T16:56:42.093Z,2.20
2017-07-20T16:59:08.914Z,2.43
2017-07-20T17:01:35.650Z,2.30
2017-07-20T17:04:02.265Z,2.23
2017-07-20T17:06:28.869Z,2.00
2017-07-20T17:08:55.425Z,2.07
2017-07-20T17:11:22.012Z,2.30
2017-07-20T17:13:48.593Z,2.23
2017-07-20T17:16:15.179Z,2.17
2017-07-20T17:18:41.794Z,1.90
2017-07-20T17:21:08.609Z,2.20
2017-07-20T17:23:35.234Z,2.20
2017-07-20T17:26:01.817Z,1.90
2017-07-20T17:28:28.471Z,2.03
2017-07-20T17:30:55.228Z,2.30
2017-07-20T17:33:23.027Z,2.00
2017-07-20T17:35:49.609Z,2.03
2017-07-20T17:38:16.190Z,2.03
2017-07-20T17:40:43.096Z,2.20
2017-07-20T17:43:09.747Z,2.10
2017-07-20T17:45:36.489Z,2.20
2017-07-20T17:48:14.912Z,2.13
2017-07-20T17:50:41.600Z,2.33
2017-07-20T17:53:14.789Z,2.00
2017-07-20T17:55:41.446Z,1.93
2017-07-20T17:58:08.596Z,1.63
2017-07-20T18:00:35.473Z,2.00
2017-07-20T18:03:02.281Z,2.10
2017-07-20T18:05:28.948Z,2.10
2017-07-20T18:07:55.519Z,1.83
2017-07-20T18:10:22.106Z,1.80
2017-07-20T18:12:48.699Z,1.87
2017-07-20T18:15:15.283Z,1.77
2017-07-20T18:17:42.098Z,1.60
2017-07-20T18:20:18.975Z,1.73
2017-07-20T18:22:45.614Z,1.60
2017-07-20T18:25:12.266Z,1.50
2017-07-20T18:27:38.950Z,1.47
2017-07-20T18:30:05.540Z,1.50
2017-07-20T18:32:32.117Z,1.47
2017-07-20T18:34:58.766Z,1.67
2017-07-20T18:37:25.345Z,1.47
2017-07-20T18:39:51.945Z,1.90
2017-07-20T18:42:18.530Z,1.50
2017-07-20T18:44:45.157Z,1.50
2017-07-20T18:47:11.946Z,1.50
2017-07-20T18:49:38.844Z,1.50
2017-07-20T18:52:05.980Z,1.70
2017-07-20T18:54:32.549Z,1.40
2017-07-20T18:56:59.136Z,1.47
2017-07-20T18:59:25.775Z,1.53
2017-07-20T19:01:52.372Z,1.77
2017-07-20T19:04:18.945Z,1.57
2017-07-20T19:06:45.544Z,1.47
2017-07-20T19:09:12.300Z,1.60
2017-07-20T19:11:40.223Z,1.20
2017-07-20T19:14:06.894Z,1.80
2017-07-20T19:16:33.517Z,1.43
2017-07-20T19:19:00.186Z,1.70
2017-07-20T19:21:26.761Z,1.70
2017-07-20T19:23:53.453Z,1.60
2017-07-20T19:26:20.033Z,1.87
2017-07-20T19:28:46.609Z,1.90
2017-07-20T19:31:13.233Z,1.57
2017-07-20T19:33:39.873Z,1.73
2017-07-20T19:36:07.274Z,1.80
2017-07-20T19:38:34.437Z,1.57
2017-07-20T19:41:01.140Z,1.50
2017-07-20T19:43:27.885Z,1.43
2017-07-20T19:45:54.584Z,1.40
2017-07-20T19:48:21.227Z,1.40
2017-07-20T19:50:47.806Z,1.37
2017-07-20T19:53:14.448Z,1.70
2017-07-20T19:55:41.113Z,1.60
2017-07-20T19:58:07.775Z,1.60
2017-07-20T20:00:34.389Z,1.50
2017-07-20T20:03:01.002Z,1.57
2017-07-20T20:05:27.629Z,1.50
2017-07-20T20:07:54.209Z,1.70
2017-07-20T20:10:20.815Z,1.60
2017-07-20T20:12:47.403Z,1.80
2017-07-20T20:15:14.178Z,1.60
2017-07-20T20:17:40.833Z,1.90
2017-07-20T20:20:08.316Z,1.80
2017-07-20T20:22:35.266Z,1.93
2017-07-20T20:25:02.174Z,1.70
2017-07-20T20:27:28.770Z,1.80
2017-07-20T20:29:55.402Z,2.00
2017-07-20T20:32:24.133Z,2.00
2017-07-20T20:34:50.748Z,2.10
2017-07-20T20:37:17.330Z,1.97
2017-07-20T20:39:44.273Z,2.10
2017-07-20T20:42:10.878Z,2.23
2017-07-20T20:44:39.162Z,2.20
2017-07-20T20:47:05.805Z,2.50
2017-07-20T20:49:32.410Z,2.30
2017-07-20T20:51:58.990Z,2.10
2017-07-20T20:54:25.583Z,2.07
2017-07-20T20:56:52.162Z,2.63
2017-07-20T20:59:18.743Z,2.53
2017-07-20T21:01:45.333Z,2.63
2017-07-20T21:04:11.939Z,2.40
2017-07-20T21:06:39.029Z,2.50
2017-07-20T21:09:05.818Z,2.30
2017-07-20T21:11:32.517Z,2.77
2017-07-20T21:13:59.128Z,2.37
2017-07-20T21:16:25.700Z,2.47
2017-07-20T21:18:52.306Z,2.60
2017-07-20T21:21:18.877Z,2.90
2017-07-20T21:23:45.455Z,2.20
2017-07-20T21:26:12.296Z,2.70
2017-07-20T21:28:39.290Z,2.57
2017-07-20T21:31:05.934Z,2.80
2017-07-20T21:33:32.600Z,2.20
2017-07-20T21:35:59.183Z,2.50
2017-07-20T21:38:25.778Z,2.13
2017-07-20T21:40:52.367Z,2.33
2017-07-20T21:43:18.949Z,2.90
2017-07-20T21:45:45.529Z,2.60
2017-07-20T21:48:12.141Z,2.40
2017-07-20T21:50:38.858Z,2.73
2017-07-20T21:53:06.294Z,2.83
2017-07-20T21:55:32.967Z,2.63
2017-07-20T21:57:59.625Z,2.90
2017-07-20T22:00:26.231Z,2.70
2017-07-20T22:02:52.861Z,2.67
2017-07-20T22:05:19.441Z,2.50
2017-07-20T22:07:46.031Z,2.40
2017-07-20T22:10:12.635Z,2.40
2017-07-20T22:12:39.257Z,2.40
2017-07-20T22:15:06.034Z,2.40
2017-07-20T22:17:32.612Z,2.73
2017-07-20T22:19:59.409Z,2.40
2017-07-20T22:22:26.062Z,2.60
2017-07-20T22:24:52.623Z,2.40
2017-07-20T22:27:19.209Z,2.97
2017-07-20T22:29:45.785Z,2.30
2017-07-20T22:32:12.478Z,2.83
2017-07-20T22:34:39.149Z,3.00
2017-07-20T22:37:06.078Z,2.87
2017-07-20T22:39:32.657Z,2.50
2017-07-20T22:41:59.442Z,2.43
2017-07-20T22:44:26.026Z,2.50
2017-07-20T22:46:52.609Z,2.50
2017-07-20T22:49:19.185Z,2.30
2017-07-20T22:51:45.780Z,2.43
2017-07-20T22:54:12.391Z,2.97
2017-07-20T22:56:39.220Z,2.50
2017-07-20T22:59:05.959Z,3.20
2017-07-20T23:01:32.532Z,2.73
2017-07-20T23:04:02.949Z,2.27
2017-07-20T23:06:29.530Z,2.23
2017-07-20T23:08:56.121Z,2.20
2017-07-20T23:11:22.697Z,2.37
2017-07-20T23:13:49.273Z,2.10
2017-07-20T23:16:15.862Z,2.10
2017-07-20T23:18:42.501Z,1.93
2017-07-20T23:21:09.349Z,2.20
2017-07-20T23:23:35.942Z,2.60
2017-07-20T23:26:02.565Z,2.60
2017-07-20T23:28:29.150Z,2.03
2017-07-20T23:30:55.730Z,2.80
2017-07-20T23:33:22.326Z,2.20
2017-07-20T23:35:48.903Z,2.30
2017-07-20T23:38:15.504Z,2.13
2017-07-20T23:40:42.097Z,2.10
2017-07-20T23:43:08.734Z,2.50
2017-07-20T23:45:35.467Z,2.43
2017-07-20T23:48:02.050Z,2.50
2017-07-20T23:50:28.630Z,2.10
2017-07-20T23:52:55.234Z,2.27
2017-07-20T23:55:21.814Z,2.27
2017-07-20T23:57:48.413Z,2.40
